Time;durP1;ratioP1;P1;durP2;ratioP2;P2;SDS_P1;SDS_P2;PMS_P1;PMS_P2;Temp;Humidity;BMP_temperature;BMP_pressure;BME280_temperature;BME280_humidity;BME280_pressure;Samples;Min_cycle;Max_cycle;Signal;HPM_P1;HPM_P2
2023/10/05 00:01:24;;;;;;;17.52;10.70;;;;;;;16.24;84.17;95584.97;5133754;27;20604;-71
2023/10/05 00:03:51;;;;;;;17.02;10.30;;;;;;;16.62;84.14;95648.41;5133790;27;20324;-71
2023/10/05 00:06:23;;;;;;;12.93;8.05;;;;;;;16.09;84.92;95580.06;5133837;27;20195;-71
2023/10/05 00:08:53;;;;;;;17.05;8.23;;;;;;;16.30;85.65;95621.25;5115178;27;20296;-70
2023/10/05 00:11:24;;;;;;;15.63;9.00;;;;;;;16.25;85.83;95620.34;5132732;27;20401;-71
2023/10/05 00:13:59;;;;;;;13.77;8.70;;;;;;;15.99;87.02;95624.97;5132649;27;20393;-71
2023/10/05 00:16:44;;;;;;;12.70;7.97;;;;;;;16.19;87.01;95652.06;5113672;27;20176;-71
2023/10/05 00:19:16;;;;;;;14.45;8.63;;;;;;;16.10;86.97;95629.50;5111785;28;20411;-71
2023/10/05 00:21:51;;;;;;;15.37;8.47;;;;;;;16.12;87.51;95654.00;5094327;28;20434;-71
2023/10/05 00:24:23;;;;;;;11.85;8.15;;;;;;;16.25;86.17;95647.72;5112772;28;20602;-71
2023/10/05 00:26:49;;;;;;;10.57;6.70;;;;;;;16.28;85.88;95649.09;5111281;28;20525;-70
2023/10/05 00:31:52;;;;;;;13.65;7.57;;;;;;;16.20;86.72;95642.25;5112989;28;20704;-71
2023/10/05 00:36:50;;;;;;;15.03;8.10;;;;;;;16.17;87.71;95638.19;5111330;27;20495;-70
2023/10/05 00:39:19;;;;;;;11.57;8.13;;;;;;;16.02;87.68;95639.63;5112061;28;20443;-70
2023/10/05 00:41:45;;;;;;;11.15;7.20;;;;;;;16.11;87.56;95649.72;5112445;28;20667;-71
2023/10/05 00:44:12;;;;;;;10.63;7.03;;;;;;;16.16;87.10;95639.25;5112100;28;20242;-70
2023/10/05 00:46:39;;;;;;;12.27;7.15;;;;;;;16.21;86.21;95647.34;5112213;28;20640;-71
2023/10/05 00:49:15;;;;;;;13.73;7.47;;;;;;;16.27;85.76;95644.81;5093671;28;20261;-71
2023/10/05 00:51:46;;;;;;;11.52;7.38;;;;;;;16.30;85.54;95647.03;5112188;28;20184;-71
2023/10/05 00:54:18;;;;;;;12.98;7.63;;;;;;;16.33;85.46;95643.91;5112337;27;20161;-71
2023/10/05 00:56:45;;;;;;;10.25;7.55;;;;;;;16.33;85.59;95643.91;5112054;28;20197;-71
2023/10/05 00:59:20;;;;;;;18.75;8.35;;;;;;;16.36;85.39;95646.09;5112039;28;20260;-71
2023/10/05 01:04:28;;;;;;;8.73;6.80;;;;;;;16.29;85.51;95645.41;5112261;28;20176;-70
2023/10/05 01:07:06;;;;;;;14.48;7.15;;;;;;;16.26;85.30;95651.97;5112000;28;20257;-71
2023/10/05 01:14:52;;;;;;;11.48;7.32;;;;;;;16.16;85.99;95636.59;5111477;28;20192;-71
2023/10/05 01:17:21;;;;;;;13.50;8.07;;;;;;;16.19;85.69;95635.31;5111389;28;20173;-71
2023/10/05 01:19:54;;;;;;;11.32;6.57;;;;;;;16.17;85.40;95632.88;5111101;28;20173;-71
2023/10/05 01:22:21;;;;;;;12.95;7.55;;;;;;;16.16;85.54;95633.13;5111555;28;20165;-71
2023/10/05 01:24:48;;;;;;;16.23;6.88;;;;;;;16.14;86.23;95628.03;5111296;28;20177;-71
2023/10/05 01:27:14;;;;;;;16.35;7.32;;;;;;;16.09;86.96;95627.06;5111286;28;20173;-71
2023/10/05 01:29:40;;;;;;;11.93;7.40;;;;;;;16.12;87.25;95627.44;5111373;28;20572;-71
2023/10/05 01:32:07;;;;;;;14.52;6.78;;;;;;;16.10;86.44;95629.50;5110692;28;20181;-71
2023/10/05 01:34:32;;;;;;;13.48;7.60;;;;;;;16.09;86.83;95630.53;5111395;28;20161;-71
2023/10/05 01:36:58;;;;;;;13.00;6.78;;;;;;;16.02;87.34;95613.88;5111198;28;20183;-71
2023/10/05 01:39:25;;;;;;;9.95;6.15;;;;;;;16.03;87.59;95625.31;5111265;28;20829;-71
2023/10/05 01:41:51;;;;;;;15.38;7.60;;;;;;;15.94;88.29;95616.88;5110133;28;20497;-71
2023/10/05 01:44:17;;;;;;;12.70;7.22;;;;;;;15.90;87.45;95605.09;5111294;27;20177;-71
2023/10/05 01:46:42;;;;;;;15.57;6.75;;;;;;;16.03;87.28;95620.00;5111465;28;20205;-71
2023/10/05 01:49:08;;;;;;;13.00;6.85;;;;;;;16.05;86.81;95616.09;5110706;28;21013;-71
2023/10/05 01:51:34;;;;;;;13.90;6.75;;;;;;;16.07;86.44;95619.34;5111055;28;20173;-71
2023/10/05 01:54:11;;;;;;;12.35;6.95;;;;;;;16.05;86.16;95610.78;5092582;28;20184;-71
2023/10/05 01:56:39;;;;;;;10.90;6.68;;;;;;;16.06;86.11;95623.03;5110929;28;20284;-71
2023/10/05 01:59:06;;;;;;;24.33;12.43;;;;;;;15.96;87.33;95628.09;5110358;28;20453;-71
2023/10/05 02:01:36;;;;;;;22.95;14.10;;;;;;;15.98;87.30;95626.00;5110839;28;20172;-71
2023/10/05 02:04:02;;;;;;;15.07;8.85;;;;;;;16.01;86.23;95624.72;5110964;28;20169;-71
2023/10/05 02:06:30;;;;;;;22.35;11.45;;;;;;;15.99;86.10;95619.69;5092581;28;20616;-71
2023/10/05 02:08:56;;;;;;;18.67;9.98;;;;;;;16.00;85.88;95623.16;5110601;28;20652;-71
2023/10/05 02:11:24;;;;;;;15.68;7.55;;;;;;;15.99;85.91;95627.63;5110758;28;20268;-71
2023/10/05 02:13:57;;;;;;;17.05;9.13;;;;;;;15.99;86.13;95626.84;5110704;28;20165;-71
2023/10/05 02:16:23;;;;;;;13.23;8.15;;;;;;;15.98;85.97;95626.00;5110828;28;20177;-71
2023/10/05 02:18:48;;;;;;;13.40;8.05;;;;;;;15.96;85.84;95630.75;5110362;28;20173;-71
2023/10/05 02:21:28;;;;;;;15.70;7.75;;;;;;;15.95;85.91;95626.47;5092184;28;20180;-70
2023/10/05 02:23:57;;;;;;;14.82;7.45;;;;;;;15.94;85.70;95626.69;5110039;28;20157;-71
2023/10/05 02:26:25;;;;;;;13.57;7.07;;;;;;;15.88;86.09;95623.09;5110205;28;20695;-70
2023/10/05 02:28:51;;;;;;;15.48;7.90;;;;;;;15.87;86.02;95629.44;5109996;28;20201;-71
2023/10/05 02:31:20;;;;;;;13.15;7.72;;;;;;;15.85;86.23;95627.00;5113156;27;20177;-71
2023/10/05 02:33:45;;;;;;;13.93;8.18;;;;;;;15.81;86.36;95623.19;5130613;27;20240;-70
2023/10/05 02:36:11;;;;;;;14.00;8.38;;;;;;;15.81;86.64;95625.03;5130548;27;20267;-70
2023/10/05 02:38:49;;;;;;;12.70;7.97;;;;;;;15.81;86.42;95625.03;5130442;27;20222;-70
2023/10/05 02:41:17;;;;;;;14.60;7.43;;;;;;;15.79;86.25;95629.75;5130417;27;20205;-70
2023/10/05 02:43:51;;;;;;;11.93;7.78;;;;;;;15.76;86.40;95636.28;5129744;27;20543;-70
2023/10/05 02:46:17;;;;;;;14.30;7.50;;;;;;;15.78;86.54;95633.41;5130557;27;20171;-70
2023/10/05 02:48:43;;;;;;;13.43;7.65;;;;;;;15.74;86.38;95630.38;5113812;27;20197;-70
2023/10/05 02:51:11;;;;;;;14.40;6.60;;;;;;;15.75;86.62;95642.63;5109073;28;20185;-70
2023/10/05 02:56:33;;;;;;;14.70;7.95;;;;;;;15.74;86.54;95629.59;5092039;28;20531;-71
2023/10/05 02:59:07;;;;;;;13.13;7.53;;;;;;;15.72;86.73;95644.94;5109694;28;20181;-69
2023/10/05 03:01:39;;;;;;;12.63;6.85;;;;;;;15.70;86.65;95647.81;5109685;28;20217;-69
2023/10/05 03:04:10;;;;;;;14.20;8.68;;;;;;;15.66;86.95;95628.03;5109846;28;20184;-69
2023/10/05 03:06:39;;;;;;;11.90;6.82;;;;;;;15.66;86.56;95636.00;5109637;28;20169;-70
2023/10/05 03:09:08;;;;;;;11.10;7.50;;;;;;;15.64;86.90;95634.63;5108977;28;20192;-70
2023/10/05 03:11:40;;;;;;;16.20;7.72;;;;;;;15.61;87.30;95635.06;5109210;28;20173;-70
2023/10/05 03:14:11;;;;;;;20.63;7.70;;;;;;;15.63;87.31;95633.00;5107574;28;20191;-70
2023/10/05 03:16:43;;;;;;;26.73;8.45;;;;;;;15.65;87.14;95631.75;5091483;28;20180;-70
2023/10/05 03:19:20;;;;;;;22.75;10.57;;;;;;;15.67;86.90;95634.97;5109592;28;20168;-70
2023/10/05 03:22:04;;;;;;;14.10;8.73;;;;;;;15.63;86.80;95625.03;5109517;28;20202;-69
2023/10/05 03:24:30;;;;;;;16.55;8.15;;;;;;;15.65;86.88;95637.06;5109517;28;20214;-70
2023/10/05 03:26:55;;;;;;;13.93;8.23;;;;;;;15.64;86.98;95632.78;5108941;28;20252;-69
2023/10/05 03:29:21;;;;;;;16.52;8.68;;;;;;;15.64;86.77;95635.44;5089714;28;20208;-70
2023/10/05 03:34:32;;;;;;;16.77;8.57;;;;;;;15.62;86.95;95650.78;5109652;28;20199;-70
2023/10/05 03:37:08;;;;;;;15.90;7.85;;;;;;;15.61;86.65;95648.34;5109683;28;20173;-69
2023/10/05 03:39:48;;;;;;;15.63;6.97;;;;;;;15.54;86.85;95635.16;5109206;28;20530;-69
2023/10/05 03:42:13;;;;;;;15.32;7.78;;;;;;;15.53;87.03;95641.47;5090784;28;20180;-69
2023/10/05 03:44:39;;;;;;;14.15;7.00;;;;;;;15.52;87.17;95641.66;5109292;28;20177;-69
2023/10/05 03:47:05;;;;;;;16.80;8.90;;;;;;;15.49;87.19;95645.56;5113652;28;20616;-70
2023/10/05 03:49:30;;;;;;;24.13;11.27;;;;;;;15.49;87.28;95642.91;5129382;28;20652;-70
2023/10/05 03:51:56;;;;;;;15.73;8.88;;;;;;;15.47;87.15;95639.69;5129171;28;20303;-70
2023/10/05 03:54:24;;;;;;;21.77;7.85;;;;;;;15.47;87.24;95648.47;5131602;27;20654;-70
2023/10/05 03:56:58;;;;;;;17.77;8.73;;;;;;;15.41;87.47;95644.03;5133413;27;20176;-70
2023/10/05 03:59:23;;;;;;;20.95;8.98;;;;;;;15.40;87.49;95647.72;5115205;27;20200;-70
2023/10/05 04:01:49;;;;;;;17.33;8.00;;;;;;;15.41;87.25;95651.19;5133732;27;20176;-70
2023/10/05 04:04:22;;;;;;;10.25;7.20;;;;;;;15.37;87.28;95650.00;5133628;27;20211;-73
2023/10/05 04:06:51;;;;;;;21.33;7.70;;;;;;;15.31;87.63;95650.88;5133613;27;20180;-72
2023/10/05 04:09:19;;;;;;;13.80;8.27;;;;;;;15.31;87.42;95650.88;5132796;27;20278;-72
2023/10/05 04:11:45;;;;;;;16.15;9.10;;;;;;;15.25;87.13;95649.09;5119566;27;20191;-73
2023/10/05 04:14:12;;;;;;;19.45;8.93;;;;;;;15.21;87.37;95658.56;5112819;28;20181;-71
2023/10/05 04:16:38;;;;;;;18.70;9.85;;;;;;;15.18;87.67;95665.09;5112655;28;20185;-71
2023/10/05 04:19:04;;;;;;;19.83;8.18;;;;;;;15.10;87.43;95660.88;5094178;28;20257;-71
2023/10/05 04:21:33;;;;;;;18.55;8.32;;;;;;;15.13;87.59;95664.94;5112741;28;20171;-72
2023/10/05 04:23:59;;;;;;;10.98;7.10;;;;;;;15.07;87.38;95663.97;5112666;28;20173;-72
2023/10/05 04:26:33;;;;;;;16.65;7.80;;;;;;;15.01;88.23;95661.38;5112295;28;20243;-72
2023/10/05 04:29:03;;;;;;;13.40;7.13;;;;;;;15.01;88.06;95658.72;5112300;28;20240;-72
2023/10/05 04:31:30;;;;;;;17.95;9.68;;;;;;;15.02;87.74;95663.00;5119877;27;20683;-71
2023/10/05 04:33:56;;;;;;;18.02;8.60;;;;;;;14.96;87.65;95659.38;5132853;27;20179;-71
2023/10/05 04:36:25;;;;;;;16.77;8.57;;;;;;;15.01;87.61;95666.69;5132968;27;20180;-71
2023/10/05 04:38:53;;;;;;;14.32;8.93;;;;;;;14.97;87.59;95670.78;5133001;27;20194;-71
2023/10/05 04:41:28;;;;;;;18.98;8.57;;;;;;;14.93;87.44;95664.31;5132726;27;20199;-71
2023/10/05 04:43:54;;;;;;;21.07;10.30;;;;;;;14.95;87.58;95673.69;5132722;27;20175;-72
2023/10/05 04:46:20;;;;;;;18.75;8.23;;;;;;;14.95;87.57;95679.00;5133170;27;20176;-72
2023/10/05 04:48:55;;;;;;;20.92;9.45;;;;;;;14.99;87.38;95682.00;5116353;27;20197;-72
2023/10/05 04:51:30;;;;;;;35.73;12.20;;;;;;;14.93;87.18;95666.97;5112297;28;20165;-71
2023/10/05 04:53:59;;;;;;;21.48;10.13;;;;;;;14.99;86.99;95687.31;5112312;28;20237;-70
2023/10/05 04:56:35;;;;;;;23.90;11.00;;;;;;;14.92;86.92;95673.28;5112132;28;20176;-70
2023/10/05 05:07:09;;;;;;;31.98;11.93;;;;;;;15.57;84.94;95693.06;5109973;28;20165;-71
2023/10/05 05:09:38;;;;;;;34.50;11.07;;;;;;;15.83;83.35;95700.75;5111805;28;20318;-71
2023/10/05 05:12:06;;;;;;;34.13;12.30;;;;;;;15.89;82.08;95685.78;5111453;28;20551;-70
2023/10/05 05:14:32;;;;;;;37.10;11.35;;;;;;;16.01;81.62;95701.75;5112140;28;20179;-71
2023/10/05 05:16:59;;;;;;;50.40;13.30;;;;;;;15.99;81.87;95707.31;5112111;28;20165;-71
2023/10/05 05:19:25;;;;;;;29.27;9.00;;;;;;;16.10;81.63;95705.72;5112070;28;20169;-71
2023/10/05 05:21:50;;;;;;;36.22;9.32;;;;;;;16.45;80.15;95706.69;5129013;27;20452;-71
2023/10/05 05:24:17;;;;;;;23.10;9.02;;;;;;;17.32;78.04;95710.47;5114071;27;20173;-72
2023/10/05 05:26:42;;;;;;;26.63;7.93;;;;;;;18.15;73.95;95712.00;5113846;27;20235;-70
2023/10/05 05:29:08;;;;;;;47.83;10.82;;;;;;;18.35;71.56;95716.91;5132143;27;20184;-70
2023/10/05 05:31:33;;;;;;;35.83;9.43;;;;;;;18.27;72.12;95715.41;5132218;27;20338;-70
2023/10/05 05:33:59;;;;;;;58.97;11.30;;;;;;;18.37;72.41;95715.63;5132463;27;20251;-70
2023/10/05 05:36:25;;;;;;;49.75;13.00;;;;;;;18.89;70.97;95722.69;5132120;27;20353;-71
2023/10/05 05:38:50;;;;;;;37.25;11.77;;;;;;;19.38;69.96;95721.06;5131819;27;20180;-71
2023/10/05 05:41:16;;;;;;;36.80;9.82;;;;;;;20.31;67.42;95714.88;5131866;27;20172;-71
2023/10/05 05:43:42;;;;;;;26.48;8.95;;;;;;;21.71;61.99;95719.09;5131860;27;20169;-71
2023/10/05 05:46:14;;;;;;;31.65;10.05;;;;;;;23.04;58.08;95736.53;5131548;27;20183;-71
2023/10/05 05:48:42;;;;;;;24.35;9.15;;;;;;;24.41;52.99;95740.66;5131634;27;20663;-71
2023/10/05 05:51:14;;;;;;;33.53;8.50;;;;;;;25.76;49.91;95727.66;5131507;27;20176;-71
2023/10/05 05:53:40;;;;;;;31.00;10.52;;;;;;;26.93;46.40;95743.31;5131620;27;20169;-71
2023/10/05 05:56:06;;;;;;;37.28;9.70;;;;;;;27.68;43.42;95740.53;5131723;27;20221;-71
2023/10/05 05:58:31;;;;;;;44.53;9.13;;;;;;;28.38;43.09;95740.34;5131750;27;20259;-71
2023/10/05 06:00:57;;;;;;;28.40;7.30;;;;;;;29.02;40.55;95743.91;5131411;27;20202;-71
2023/10/05 06:03:24;;;;;;;22.58;8.25;;;;;;;29.82;38.88;95753.94;5131602;27;20184;-71
2023/10/05 06:05:51;;;;;;;13.38;4.88;;;;;;;30.50;37.54;95752.69;5131298;27;20161;-70
2023/10/05 06:08:16;;;;;;;14.45;7.03;;;;;;;31.17;36.25;95753.19;5131130;27;20674;-71
2023/10/05 06:10:46;;;;;;;23.25;10.90;;;;;;;31.72;35.02;95761.50;5131022;27;20165;-71
2023/10/05 06:13:13;;;;;;;10.18;3.63;;;;;;;32.20;33.24;95760.44;5131731;27;20305;-71
2023/10/05 06:15:38;;;;;;;17.48;4.57;;;;;;;32.70;32.13;95759.75;5131044;27;20185;-71
2023/10/05 06:18:04;;;;;;;10.80;4.18;;;;;;;33.11;31.27;95769.97;5130983;27;20527;-71
2023/10/05 06:20:29;;;;;;;7.18;4.05;;;;;;;33.37;30.38;95753.41;5130203;27;20254;-71
2023/10/05 06:22:55;;;;;;;8.73;3.92;;;;;;;33.72;29.90;95755.50;5131136;27;20251;-71
2023/10/05 06:25:21;;;;;;;8.85;3.67;;;;;;;33.66;29.12;95750.56;5130896;27;20291;-71
2023/10/05 06:27:51;;;;;;;8.02;3.65;;;;;;;33.84;28.73;95748.47;5131204;27;20179;-71
2023/10/05 06:30:16;;;;;;;11.20;4.00;;;;;;;34.05;28.00;95751.97;5131110;27;20245;-71
2023/10/05 06:32:45;;;;;;;8.57;3.08;;;;;;;34.30;27.66;95764.56;5131009;27;20177;-71
2023/10/05 06:35:13;;;;;;;8.65;3.67;;;;;;;34.29;27.51;95764.91;5130592;27;20624;-71
2023/10/05 06:37:41;;;;;;;11.23;3.78;;;;;;;34.62;26.76;95759.34;5118605;27;20169;-71
2023/10/05 06:40:14;;;;;;;8.82;3.47;;;;;;;34.66;26.84;95755.59;5123533;27;20167;-72
2023/10/05 06:42:41;;;;;;;29.13;3.80;;;;;;;34.82;26.38;95763.94;5130637;27;20217;-71
2023/10/05 06:45:13;;;;;;;10.93;3.97;;;;;;;34.08;27.10;95757.53;5130644;27;20203;-71
2023/10/05 06:47:39;;;;;;;10.45;3.30;;;;;;;33.73;27.34;95761.78;5130103;27;20174;-71
2023/10/05 06:50:11;;;;;;;6.65;3.40;;;;;;;32.95;28.69;95765.06;5130292;27;20573;-71
2023/10/05 06:52:43;;;;;;;15.30;6.55;;;;;;;32.64;29.47;95750.94;5130646;27;20182;-71
2023/10/05 06:55:13;;;;;;;6.53;3.38;;;;;;;32.58;29.07;95750.34;5130045;27;20160;-70
2023/10/05 06:57:39;;;;;;;10.80;4.68;;;;;;;32.27;30.59;95754.47;5130505;27;20180;-71
2023/10/05 07:00:16;;;;;;;9.23;3.72;;;;;;;31.86;30.37;95751.22;5130290;27;20607;-70
2023/10/05 07:02:42;;;;;;;18.42;4.28;;;;;;;31.33;30.98;95731.72;5130616;27;20168;-70
2023/10/05 07:05:08;;;;;;;16.65;4.22;;;;;;;31.00;31.50;95751.22;5130973;28;20169;-70
2023/10/05 07:07:35;;;;;;;11.35;3.22;;;;;;;30.69;32.41;95755.97;5130650;28;20281;-70
2023/10/05 07:10:01;;;;;;;16.27;4.22;;;;;;;30.48;33.13;95754.91;5112078;28;20245;-70
2023/10/05 07:12:26;;;;;;;10.63;3.30;;;;;;;30.37;33.00;95746.22;5130760;28;20176;-70
2023/10/05 07:14:51;;;;;;;12.05;4.18;;;;;;;30.09;33.99;95753.00;5130832;28;20176;-70
2023/10/05 07:17:17;;;;;;;9.50;3.67;;;;;;;29.86;33.71;95749.47;5130424;28;20551;-70
2023/10/05 07:19:48;;;;;;;6.20;2.90;;;;;;;29.91;33.90;95752.88;5130676;28;20615;-70
2023/10/05 07:22:13;;;;;;;8.13;4.80;;;;;;;29.48;34.78;95747.19;5130678;28;20255;-70
2023/10/05 07:24:40;;;;;;;26.25;4.05;;;;;;;29.24;35.42;95750.13;5130390;28;20168;-70
2023/10/05 07:27:05;;;;;;;12.27;3.40;;;;;;;28.75;35.37;95731.97;5130520;28;20172;-70
2023/10/05 07:29:31;;;;;;;14.45;4.07;;;;;;;28.30;36.78;95747.25;5132490;27;20263;-70
2023/10/05 07:31:56;;;;;;;6.65;3.35;;;;;;;27.98;37.89;95750.81;5134622;27;20164;-70
2023/10/05 07:34:21;;;;;;;11.55;4.13;;;;;;;27.92;37.91;95751.22;5134640;27;20164;-70
2023/10/05 07:36:47;;;;;;;11.20;3.80;;;;;;;27.77;38.50;95747.66;5134415;27;20191;-70
2023/10/05 07:39:14;;;;;;;14.23;4.28;;;;;;;27.63;39.07;95749.56;5134146;27;20164;-70
2023/10/05 07:41:40;;;;;;;10.02;3.38;;;;;;;27.64;38.78;95742.25;5129889;27;20638;-70
2023/10/05 07:44:05;;;;;;;11.00;3.42;;;;;;;27.69;38.75;95750.25;5114204;28;20263;-70
2023/10/05 07:46:31;;;;;;;8.95;3.45;;;;;;;27.43;38.65;95739.03;5114107;28;20227;-70
2023/10/05 07:48:56;;;;;;;12.23;3.03;;;;;;;27.57;39.23;95749.94;5108546;28;20274;-70
2023/10/05 07:51:22;;;;;;;7.47;3.97;;;;;;;27.66;38.47;95750.88;5100561;28;20169;-70
2023/10/05 07:53:48;;;;;;;10.35;3.75;;;;;;;27.56;38.67;95743.72;5116035;27;20259;-71
2023/10/05 07:56:16;;;;;;;8.70;3.67;;;;;;;27.56;39.26;95737.50;5117380;27;20175;-71
2023/10/05 07:58:44;;;;;;;8.00;3.42;;;;;;;27.71;38.98;95739.94;5129622;27;20234;-70
2023/10/05 08:01:10;;;;;;;6.68;3.45;;;;;;;27.73;39.14;95735.84;5118978;27;20188;-71
2023/10/05 08:03:39;;;;;;;9.15;2.67;;;;;;;27.83;38.03;95734.06;5123692;27;20174;-70
2023/10/05 08:06:05;;;;;;;8.00;3.78;;;;;;;27.68;39.00;95730.50;5106990;28;20980;-69
2023/10/05 08:08:31;;;;;;;7.35;3.50;;;;;;;27.58;38.95;95727.19;5109846;27;20193;-70
2023/10/05 08:10:56;;;;;;;6.57;3.60;;;;;;;27.65;38.71;95730.31;5112647;28;20185;-69
2023/10/05 08:13:23;;;;;;;10.75;3.47;;;;;;;27.72;38.71;95728.03;5112046;28;20188;-69
2023/10/05 08:15:48;;;;;;;9.23;4.05;;;;;;;27.45;39.18;95717.09;5112194;28;20180;-68
2023/10/05 08:18:13;;;;;;;8.93;3.65;;;;;;;27.11;40.23;95726.28;5112150;28;20173;-70
2023/10/05 08:20:39;;;;;;;14.82;4.57;;;;;;;27.12;40.01;95722.47;5111592;28;20164;-69
2023/10/05 08:23:06;;;;;;;13.85;4.47;;;;;;;27.14;40.33;95724.91;5111568;28;20657;-70
2023/10/05 08:25:31;;;;;;;15.10;3.90;;;;;;;27.31;40.47;95722.47;5109546;28;20229;-69
2023/10/05 08:27:57;;;;;;;14.88;4.50;;;;;;;27.36;39.88;95719.66;5110745;28;20184;-69
2023/10/05 08:30:25;;;;;;;10.93;4.25;;;;;;;27.39;39.75;95721.78;5111947;28;20201;-69
2023/10/05 08:32:50;;;;;;;11.70;3.95;;;;;;;26.89;41.19;95718.75;5123785;27;20584;-70
2023/10/05 08:35:19;;;;;;;6.47;3.70;;;;;;;26.78;41.69;95727.28;5123440;27;20243;-70
2023/10/05 08:37:49;;;;;;;11.73;3.97;;;;;;;26.99;41.54;95721.31;5124787;27;20177;-70
2023/10/05 08:40:37;;;;;;;9.73;4.05;;;;;;;27.24;40.83;95716.63;5104552;28;20317;-70
2023/10/05 08:43:10;;;;;;;11.23;4.20;;;;;;;27.39;40.91;95717.19;5112400;28;20546;-70
2023/10/05 08:45:38;;;;;;;8.75;4.40;;;;;;;27.51;40.62;95715.91;5112665;28;20180;-69
2023/10/05 08:48:08;;;;;;;6.20;4.18;;;;;;;27.66;40.01;95718.41;5112617;28;20258;-69
2023/10/05 08:50:35;;;;;;;8.52;3.85;;;;;;;27.54;40.64;95718.06;5112223;28;20181;-70
2023/10/05 08:53:01;;;;;;;10.75;4.20;;;;;;;27.66;40.82;95707.56;5112762;28;20165;-69
2023/10/05 08:55:30;;;;;;;11.57;4.72;;;;;;;27.64;41.01;95709.75;5112892;28;20179;-70
2023/10/05 08:57:55;;;;;;;10.98;4.65;;;;;;;27.78;40.28;95708.69;5112635;28;20267;-69
2023/10/05 09:00:38;;;;;;;17.25;5.15;;;;;;;27.85;40.73;95702.09;5113043;28;20277;-69
2023/10/05 09:03:13;;;;;;;11.02;5.22;;;;;;;27.83;40.69;95707.78;5112190;28;20528;-69
2023/10/05 09:06:12;;;;;;;12.88;4.93;;;;;;;27.73;40.49;95700.66;5112804;28;20726;-70
2023/10/05 09:08:57;;;;;;;7.95;4.28;;;;;;;27.67;40.60;95696.44;5112512;28;20204;-69
2023/10/05 09:11:32;;;;;;;7.30;4.18;;;;;;;27.68;41.07;95699.94;5112382;28;20203;-70
2023/10/05 09:14:17;;;;;;;8.93;4.43;;;;;;;27.36;41.80;95693.41;5112004;28;20752;-69
2023/10/05 09:16:45;;;;;;;14.48;4.75;;;;;;;26.79;42.27;95691.06;5112044;28;20636;-70
2023/10/05 09:19:13;;;;;;;13.85;5.22;;;;;;;26.71;43.64;95694.41;5111693;28;20677;-69
2023/10/05 09:21:51;;;;;;;12.18;5.30;;;;;;;26.78;43.03;95684.84;5111701;28;20177;-69
2023/10/05 09:24:21;;;;;;;15.32;4.88;;;;;;;26.95;42.71;95682.47;5111338;28;21574;-70
2023/10/05 09:26:50;;;;;;;22.40;5.20;;;;;;;26.70;43.62;95679.31;5110658;28;20221;-70
2023/10/05 09:29:21;;;;;;;13.80;4.75;;;;;;;26.14;44.08;95670.00;5110479;28;20201;-70
2023/10/05 09:31:58;;;;;;;27.38;6.97;;;;;;;25.24;45.79;95661.78;5129523;27;20176;-70
2023/10/05 09:34:44;;;;;;;16.90;4.85;;;;;;;25.38;47.31;95670.78;5131437;27;20172;-69
2023/10/05 09:37:10;;;;;;;9.65;4.53;;;;;;;25.51;46.39;95672.81;5131301;27;20172;-69
2023/10/05 09:39:44;;;;;;;9.45;4.30;;;;;;;25.44;46.33;95644.56;5131426;27;20172;-70
2023/10/05 09:42:36;;;;;;;14.05;5.28;;;;;;;25.36;46.51;95662.19;5131066;27;20180;-69
2023/10/05 09:45:12;;;;;;;10.95;5.10;;;;;;;25.43;47.11;95661.84;5127694;27;20180;-69
2023/10/05 09:47:40;;;;;;;14.40;5.43;;;;;;;25.47;46.13;95655.63;5131130;27;20302;-69
2023/10/05 09:50:10;;;;;;;8.50;4.68;;;;;;;25.10;46.94;95655.41;5130827;27;20211;-69
2023/10/05 09:52:37;;;;;;;12.90;5.30;;;;;;;25.24;47.36;95655.56;5130606;27;20233;-69
2023/10/05 09:55:07;;;;;;;10.52;5.50;;;;;;;25.37;47.08;95652.19;5130853;27;20207;-69
2023/10/05 09:57:41;;;;;;;11.80;4.78;;;;;;;25.46;47.66;95647.81;5130816;27;20508;-69
2023/10/05 10:00:28;;;;;;;16.60;5.40;;;;;;;25.62;46.88;95651.16;5130710;27;20186;-69
2023/10/05 10:03:03;;;;;;;18.13;5.70;;;;;;;25.71;46.68;95652.97;5130472;27;20187;-70
2023/10/05 10:05:34;;;;;;;15.57;5.88;;;;;;;25.50;47.22;95644.25;5130826;27;20262;-69
2023/10/05 10:08:23;;;;;;;6.97;4.68;;;;;;;25.56;47.49;95636.91;5130750;27;20176;-70
2023/10/05 10:11:02;;;;;;;8.35;4.72;;;;;;;25.53;46.94;95630.19;5130663;27;20184;-70
2023/10/05 10:13:37;;;;;;;16.77;4.78;;;;;;;25.51;46.68;95631.59;5130617;27;20176;-70
2023/10/05 10:16:23;;;;;;;8.15;4.80;;;;;;;25.51;46.64;95634.28;5130509;27;20171;-70
2023/10/05 10:19:28;;;;;;;13.15;4.55;;;;;;;25.51;46.02;95626.97;5129803;27;20552;-70
2023/10/05 10:21:59;;;;;;;9.13;5.20;;;;;;;25.36;47.69;95624.44;5027467;28;20186;-69
2023/10/05 10:24:28;;;;;;;13.68;4.93;;;;;;;25.41;47.37;95624.41;5113111;27;20516;-70
2023/10/05 10:27:07;;;;;;;12.35;5.25;;;;;;;25.38;47.51;95613.38;5130207;27;20208;-68
2023/10/05 10:29:53;;;;;;;9.60;5.60;;;;;;;25.36;47.31;95608.25;5130126;27;20231;-69
2023/10/05 10:32:32;;;;;;;10.30;6.55;;;;;;;25.31;47.46;95612.91;5130014;27;20196;-69
2023/10/05 10:35:26;;;;;;;10.82;5.57;;;;;;;25.06;47.82;95601.28;5130287;27;20258;-69
2023/10/05 10:37:54;;;;;;;13.07;5.05;;;;;;;24.91;48.17;95600.59;5130219;27;20180;-68
2023/10/05 10:45:33;;;;;;;8.95;5.22;;;;;;;24.76;48.33;95585.34;5130065;27;20175;-68
2023/10/05 10:47:59;;;;;;;13.45;5.88;;;;;;;24.59;48.82;95571.47;5129993;27;20172;-68
2023/10/05 10:50:31;;;;;;;15.30;5.32;;;;;;;24.69;49.25;95574.09;5129647;27;20200;-69
2023/10/05 10:53:00;;;;;;;13.95;7.15;;;;;;;24.72;48.66;95573.53;5129686;27;20186;-69
2023/10/05 10:55:31;;;;;;;8.85;5.13;;;;;;;24.81;49.02;95561.88;5129207;27;20639;-69
2023/10/05 10:57:59;;;;;;;10.43;4.68;;;;;;;24.94;48.39;95560.41;5130046;27;20172;-69
2023/10/05 11:03:11;;;;;;;12.18;4.97;;;;;;;25.15;47.52;95556.47;5128885;27;20218;-69
2023/10/05 11:05:41;;;;;;;11.77;5.13;;;;;;;25.13;47.16;95555.94;5129410;27;20263;-69
2023/10/05 11:08:13;;;;;;;10.25;5.00;;;;;;;25.17;47.45;95553.44;5128825;28;20569;-69
2023/10/05 11:10:42;;;;;;;11.25;4.75;;;;;;;25.07;48.12;95542.81;5128763;28;20176;-69
2023/10/05 11:13:14;;;;;;;34.75;7.47;;;;;;;24.95;49.05;95536.97;5129064;28;20172;-69
2023/10/05 11:16:00;;;;;;;12.60;5.25;;;;;;;24.99;48.10;95538.84;5129627;28;20172;-69
2023/10/05 11:18:30;;;;;;;9.95;5.18;;;;;;;25.07;47.51;95532.81;5107875;28;20169;-69
2023/10/05 11:21:14;;;;;;;10.23;5.50;;;;;;;25.03;47.70;95531.78;5108871;28;20177;-69
2023/10/05 11:23:48;;;;;;;11.30;5.38;;;;;;;24.96;48.37;95535.91;5108597;28;20173;-69
2023/10/05 11:26:17;;;;;;;14.13;6.72;;;;;;;24.89;48.06;95527.31;5108193;28;20212;-69
2023/10/05 11:28:49;;;;;;;9.15;4.93;;;;;;;24.76;48.05;95528.75;5108374;28;20215;-69
2023/10/05 11:31:21;;;;;;;21.48;5.40;;;;;;;24.80;48.48;95521.75;5108747;28;20635;-69
2023/10/05 11:33:47;;;;;;;9.40;5.22;;;;;;;24.90;49.00;95518.94;5108914;28;20177;-69
2023/10/05 11:36:21;;;;;;;9.63;5.22;;;;;;;25.06;48.47;95520.44;5108337;28;20670;-69
2023/10/05 11:38:57;;;;;;;10.48;5.05;;;;;;;25.05;47.64;95491.88;5108505;28;20173;-69
2023/10/05 11:41:33;;;;;;;11.60;4.80;;;;;;;25.20;47.86;95512.47;5108195;28;20172;-69
2023/10/05 11:43:59;;;;;;;9.60;4.90;;;;;;;25.29;47.51;95512.63;5108183;28;20176;-69
2023/10/05 11:46:48;;;;;;;11.32;5.65;;;;;;;25.41;46.93;95513.03;5108684;28;20165;-69
2023/10/05 11:49:13;;;;;;;11.75;5.68;;;;;;;25.46;47.08;95502.19;5108952;28;20189;-69
2023/10/05 11:51:44;;;;;;;8.50;4.68;;;;;;;25.56;47.21;95500.16;5109096;28;20238;-69
2023/10/05 11:54:11;;;;;;;10.05;5.35;;;;;;;25.66;46.83;95503.84;5108250;28;20598;-69
2023/10/05 11:56:38;;;;;;;12.73;4.78;;;;;;;25.71;47.06;95493.00;5108075;28;20169;-69
2023/10/05 11:59:05;;;;;;;8.40;5.20;;;;;;;25.76;46.21;95493.75;5108073;28;20161;-69
2023/10/05 12:01:32;;;;;;;13.50;5.00;;;;;;;25.74;45.92;95493.22;5108428;28;20223;-69
2023/10/05 12:03:58;;;;;;;10.85;5.63;;;;;;;25.77;45.47;95495.31;5108359;28;20226;-70
2023/10/05 12:06:25;;;;;;;10.43;5.07;;;;;;;25.77;45.26;95492.63;5108440;28;20173;-69
2023/10/05 12:09:00;;;;;;;8.00;5.18;;;;;;;25.69;45.78;95497.88;5107901;28;20185;-69
2023/10/05 12:11:26;;;;;;;10.00;5.13;;;;;;;25.62;45.64;95490.13;5108044;28;20259;-69
2023/10/05 12:13:56;;;;;;;13.38;5.32;;;;;;;25.52;45.76;95495.63;5108093;28;20251;-71